TimeCST,TemperatureF,Dew PointF,Humidity,Sea Level PressureIn,VisibilityMPH,Wind Direction,Wind SpeedMPH,Gust SpeedMPH,PrecipitationIn,Events,Conditions,WindDirDegrees,DateUTC
12:53 AM,68.0,61.0,78,30.07,10.0,SW,6.9,-,N/A,,Clear,230,2012-11-04 05:53:00
1:53 AM,64.0,59.0,84,30.08,10.0,Calm,Calm,-,N/A,,Clear,0,2012-11-04 06:53:00
1:53 AM,61.0,57.0,87,30.07,10.0,Calm,Calm,-,N/A,,Clear,0,2012-11-04 07:53:00
2:53 AM,59.0,55.9,90,30.06,10.0,South,3.5,-,N/A,,Clear,180,2012-11-04 08:53:00
3:53 AM,57.9,55.9,93,30.06,8.0,Calm,Calm,-,N/A,,Clear,0,2012-11-04 09:53:00
4:53 AM,57.0,55.0,93,30.08,9.0,Calm,Calm,-,N/A,,Clear,0,2012-11-04 10:53:00
5:29 AM,60.8,57.2,88,30.12,5.0,NNW,3.5,-,N/A,,Scattered Clouds,330,2012-11-04 11:29:00
5:46 AM,60.8,59.0,94,30.13,5.0,WNW,3.5,-,N/A,,Mostly Cloudy,300,2012-11-04 11:46:00
5:53 AM,61.0,59.0,93,30.12,5.0,WNW,3.5,-,N/A,,Mostly Cloudy,300,2012-11-04 11:53:00
6:03 AM,62.6,59.0,88,30.13,5.0,Calm,Calm,-,N/A,,Overcast,0,2012-11-04 12:03:00
6:16 AM,62.6,59.0,88,30.13,5.0,Calm,Calm,-,N/A,,Overcast,0,2012-11-04 12:16:00
6:24 AM,62.6,59.0,88,30.13,4.0,Calm,Calm,-,N/A,,Mostly Cloudy,0,2012-11-04 12:24:00
6:53 AM,62.1,59.0,90,30.13,5.0,Calm,Calm,-,N/A,,Mostly Cloudy,0,2012-11-04 12:53:00
7:53 AM,66.9,60.1,79,30.13,9.0,Calm,Calm,-,N/A,,Scattered Clouds,0,2012-11-04 13:53:00
8:53 AM,69.1,59.0,70,30.12,10.0,Calm,Calm,-,N/A,,Clear,0,2012-11-04 14:53:00
9:53 AM,69.1,59.0,70,30.14,10.0,NW,4.6,-,N/A,,Mostly Cloudy,320,2012-11-04 15:53:00
10:53 AM,64.9,60.1,84,30.14,10.0,SSW,4.6,-,0.01,Rain,Light Rain,210,2012-11-04 16:53:00
11:53 AM,64.9,61.0,87,30.09,10.0,SSW,3.5,-,0.02,Rain,Light Rain,200,2012-11-04 17:53:00
12:53 PM,66.9,61.0,81,30.06,10.0,North,4.6,-,0.00,,Scattered Clouds,350,2012-11-04 18:53:00
1:53 PM,68.0,62.1,81,30.07,10.0,North,8.1,-,0.01,,Clear,350,2012-11-04 19:53:00
2:35 PM,68.0,62.6,83,30.07,10.0,NNW,4.6,-,N/A,,Partly Cloudy,330,2012-11-04 20:35:00
2:53 PM,68.0,61.0,78,30.07,10.0,NW,4.6,-,N/A,,Clear,320,2012-11-04 20:53:00
3:53 PM,68.0,61.0,78,30.06,10.0,Calm,Calm,-,N/A,,Partly Cloudy,0,2012-11-04 21:53:00
4:53 PM,66.9,62.1,84,30.07,10.0,Calm,Calm,-,N/A,,Clear,0,2012-11-04 22:53:00
5:28 PM,64.4,62.6,94,30.07,10.0,Calm,Calm,-,N/A,,Mostly Cloudy,0,2012-11-04 23:28:00
5:38 PM,64.4,62.6,94,30.07,10.0,Calm,Calm,-,N/A,,Scattered Clouds,0,2012-11-04 23:38:00
5:53 PM,62.1,60.1,93,30.07,10.0,Calm,Calm,-,N/A,,Clear,0,2012-11-04 23:53:00
6:40 PM,60.8,59.0,94,30.08,1.5,Calm,Calm,-,N/A,,Clear,0,2012-11-05 00:40:00
6:43 PM,60.8,59.0,94,30.08,0.8,Calm,Calm,-,N/A,,Partly Cloudy,0,2012-11-05 00:43:00
6:53 PM,61.0,59.0,93,30.08,1.2,Calm,Calm,-,N/A,,Partly Cloudy,0,2012-11-05 00:53:00
7:04 PM,60.8,59.0,94,30.09,2.0,Calm,Calm,-,N/A,,Scattered Clouds,0,2012-11-05 01:04:00
7:07 PM,60.8,59.0,94,30.09,3.0,NW,3.5,-,N/A,,Mostly Cloudy,320,2012-11-05 01:07:00
7:53 PM,61.0,57.9,90,30.09,10.0,Calm,Calm,-,N/A,,Partly Cloudy,0,2012-11-05 01:53:00
8:53 PM,60.1,57.0,90,30.10,10.0,NW,3.5,-,N/A,,Clear,320,2012-11-05 02:53:00
9:53 PM,57.9,55.0,90,30.11,8.0,Calm,Calm,-,N/A,,Clear,0,2012-11-05 03:53:00
10:51 PM,55.4,53.6,94,30.11,1.8,Calm,Calm,-,N/A,,Clear,0,2012-11-05 04:51:00
10:53 PM,55.0,54.0,96,30.11,1.5,Calm,Calm,-,N/A,,Clear,0,2012-11-05 04:53:00